createdAt,value
2014-09-20T06:19:19.444Z,152
2014-09-20T06:27:20.055Z,141
2014-09-20T06:36:20.714Z,152
2014-09-20T06:43:21.257Z,195
2014-09-20T06:50:21.802Z,231
2014-09-20T06:58:22.412Z,240
2014-09-20T07:04:22.908Z,245
2014-09-20T07:11:23.467Z,261
2014-09-20T07:21:24.174Z,272
2014-09-20T18:00:33.093Z,0
2014-09-20T18:07:33.654Z,0
2014-09-20T18:15:34.279Z,0
2014-09-20T18:22:34.808Z,0
2014-09-20T18:31:35.467Z,0
2014-09-20T18:38:36.027Z,0
2014-09-20T18:45:36.587Z,0
2014-09-20T18:53:37.195Z,0
2014-09-20T19:02:37.854Z,0
2014-09-20T19:11:38.512Z,0
2014-09-20T19:18:39.056Z,0
2014-09-20T19:27:39.714Z,0
2014-09-20T19:35:40.323Z,0
2014-09-20T19:43:40.934Z,0
2014-09-20T19:52:41.591Z,0
2014-09-20T19:59:42.135Z,0
2014-09-20T20:08:42.808Z,0
2014-09-20T20:16:43.418Z,0
2014-09-20T20:25:44.077Z,0
2014-09-20T20:33:44.669Z,0
2014-09-20T20:41:45.279Z,0
2014-09-20T20:50:45.936Z,0
2014-09-20T20:58:46.546Z,0
2014-09-20T21:06:47.155Z,0
2014-09-20T21:15:47.812Z,0
2014-09-20T21:24:48.472Z,0
2014-09-20T21:33:49.127Z,0
2014-09-20T21:42:49.786Z,0
2014-09-20T21:51:50.446Z,0
2014-09-20T21:58:50.989Z,0
2014-09-20T22:08:51.711Z,0
2014-09-20T22:18:52.408Z,0
2014-09-20T22:25:52.967Z,0
